createdAt,value
2023-05-11T00:02:17.000Z,2.6
2023-05-11T00:05:49.000Z,1.4
2023-05-11T00:09:22.000Z,4.5
2023-05-11T00:12:55.000Z,2.2
2023-05-11T00:16:27.000Z,2.1
2023-05-11T00:20:00.000Z,3.4
2023-05-11T00:23:33.000Z,1.2
2023-05-11T00:27:05.000Z,3.1
2023-05-11T00:30:38.000Z,2.7
2023-05-11T00:33:29.000Z,1.9
2023-05-11T00:37:02.000Z,1.8
2023-05-11T00:40:34.000Z,3.3
2023-05-11T00:44:07.000Z,1.4
2023-05-11T00:47:40.000Z,2.3
2023-05-11T00:51:12.000Z,1.7
2023-05-11T00:54:45.000Z,2.1
2023-05-11T00:58:18.000Z,4.7
2023-05-11T01:01:50.000Z,2.3
2023-05-11T01:05:23.000Z,3.7
2023-05-11T01:08:55.000Z,3.1
2023-05-11T01:11:46.000Z,3.1
2023-05-11T01:15:19.000Z,2.2
2023-05-11T01:18:52.000Z,4.3
2023-05-11T01:22:24.000Z,1.3
2023-05-11T01:25:57.000Z,2.1
2023-05-11T01:29:30.000Z,2.3
2023-05-11T01:33:02.000Z,5.5
2023-05-11T01:36:35.000Z,4.3
2023-05-11T01:40:08.000Z,2.8
2023-05-11T01:43:41.000Z,2.5
2023-05-11T01:47:14.000Z,2
2023-05-11T01:50:05.000Z,5.3
2023-05-11T01:53:38.000Z,1.6
2023-05-11T02:05:30.000Z,2.1
2023-05-11T02:09:03.000Z,1.3
2023-05-11T02:12:36.000Z,1.8
2023-05-11T02:16:08.000Z,2.1
2023-05-11T02:19:41.000Z,2.9
2023-05-11T02:23:14.000Z,4.5
2023-05-11T02:26:46.000Z,5.4
2023-05-11T02:29:37.000Z,2.9
2023-05-11T02:33:10.000Z,2
2023-05-11T02:36:43.000Z,2.4
2023-05-11T02:40:15.000Z,5.4
2023-05-11T02:43:48.000Z,1.3
2023-05-11T02:47:21.000Z,3.5
2023-05-11T02:50:53.000Z,2.7
2023-05-11T02:54:26.000Z,5.5
2023-05-11T02:57:59.000Z,2.2
2023-05-11T03:01:31.000Z,2.1
2023-05-11T03:05:04.000Z,2.6
2023-05-11T03:07:55.000Z,5.8
2023-05-11T03:11:28.000Z,3
2023-05-11T03:15:01.000Z,1.4
2023-05-11T03:18:34.000Z,4.3
2023-05-11T03:22:06.000Z,2.4
2023-05-11T03:25:39.000Z,2.9
2023-05-11T03:29:11.000Z,3.9
2023-05-11T03:32:44.000Z,1.3
2023-05-11T03:36:17.000Z,1.3
2023-05-11T03:39:49.000Z,5.1
2023-05-11T03:43:22.000Z,3.2
2023-05-11T03:46:13.000Z,1.6
2023-05-11T03:49:46.000Z,3.4
2023-05-11T03:53:19.000Z,1.6
2023-05-11T03:56:51.000Z,2
2023-05-11T04:00:24.000Z,2.3
2023-05-11T04:03:56.000Z,2.7
2023-05-11T04:07:29.000Z,3.9
2023-05-11T04:11:02.000Z,2.7
2023-05-11T04:14:34.000Z,2.1
2023-05-11T04:18:07.000Z,2.5
2023-05-11T04:21:40.000Z,1.9
2023-05-11T04:24:31.000Z,2.3
2023-05-11T04:28:03.000Z,2.3
2023-05-11T04:31:36.000Z,3
2023-05-11T04:35:09.000Z,4.6
2023-05-11T04:38:41.000Z,3.9
2023-05-11T04:42:14.000Z,2.4
2023-05-11T04:45:47.000Z,4.3
2023-05-11T04:49:19.000Z,1.7
2023-05-11T04:52:52.000Z,1.6
2023-05-11T04:56:25.000Z,1.6
2023-05-11T04:59:57.000Z,2.5
2023-05-11T05:02:49.000Z,1.8
2023-05-11T05:06:21.000Z,5.1
2023-05-11T05:09:54.000Z,4.1
2023-05-11T05:13:26.000Z,1.9
2023-05-11T05:16:59.000Z,3.9
2023-05-11T05:20:32.000Z,4.1
2023-05-11T05:24:04.000Z,2.5
2023-05-11T05:27:37.000Z,1.8
2023-05-11T05:31:10.000Z,1.9
2023-05-11T05:34:43.000Z,2.1
2023-05-11T05:38:15.000Z,2.7
2023-05-11T05:41:07.000Z,2.7
2023-05-11T05:44:40.000Z,2.4
2023-05-11T05:48:12.000Z,3.6
2023-05-11T05:51:45.000Z,3.2
2023-05-11T05:55:18.000Z,2
2023-05-11T05:58:50.000Z,2.7
2023-05-11T06:02:23.000Z,2.9
2023-05-11T06:05:56.000Z,3.3
2023-05-11T06:09:29.000Z,2.5
2023-05-11T06:13:04.000Z,4.7
2023-05-11T06:16:37.000Z,4.5
2023-05-11T06:19:28.000Z,5.2
2023-05-11T06:23:01.000Z,7.2
2023-05-11T06:26:33.000Z,5.5
2023-05-11T06:30:06.000Z,2.1
2023-05-11T06:33:39.000Z,4.3
2023-05-11T06:37:11.000Z,7.4
2023-05-11T06:40:44.000Z,5.9
2023-05-11T06:44:16.000Z,6
2023-05-11T06:47:49.000Z,8.6
2023-05-11T06:51:22.000Z,5.9
2023-05-11T06:54:55.000Z,6.6
2023-05-11T06:57:46.000Z,5.2
2023-05-11T07:01:18.000Z,8.2
2023-05-11T07:04:51.000Z,7.7
2023-05-11T07:08:24.000Z,11.8
2023-05-11T07:11:57.000Z,13.2
2023-05-11T07:15:29.000Z,13.1
2023-05-11T07:19:02.000Z,11.4
2023-05-11T07:22:35.000Z,14.2
2023-05-11T07:26:08.000Z,13.3
2023-05-11T07:29:40.000Z,21.1
2023-05-11T07:33:13.000Z,16.7
2023-05-11T07:36:04.000Z,16.4
2023-05-11T07:39:37.000Z,14.8
2023-05-11T07:43:11.000Z,14.1
2023-05-11T07:46:44.000Z,15.1
2023-05-11T07:50:16.000Z,19
2023-05-11T07:53:50.000Z,18.7
2023-05-11T07:57:23.000Z,18
2023-05-11T08:00:55.000Z,18.9
2023-05-11T08:04:28.000Z,16.6
2023-05-11T08:08:01.000Z,17.6
2023-05-11T08:11:34.000Z,14.3
2023-05-11T08:14:25.000Z,16.1
2023-05-11T08:17:58.000Z,14.9
2023-05-11T08:21:30.000Z,20.6
2023-05-11T08:25:03.000Z,17.6
2023-05-11T08:28:36.000Z,23
2023-05-11T08:32:10.000Z,21.6
2023-05-11T08:35:43.000Z,20.1
2023-05-11T08:39:16.000Z,18.3
2023-05-11T08:43:10.000Z,22.1
2023-05-11T08:46:43.000Z,21.5
2023-05-11T08:50:36.000Z,17.2
2023-05-11T08:53:27.000Z,20.3
2023-05-11T08:57:00.000Z,18.5
2023-05-11T09:00:33.000Z,16.3
2023-05-11T09:04:05.000Z,14.6
2023-05-11T09:07:38.000Z,12
2023-05-11T09:11:10.000Z,13.8
2023-05-11T09:14:43.000Z,14.9
2023-05-11T09:18:35.000Z,17.7
2023-05-11T09:22:08.000Z,12.6
2023-05-11T09:25:40.000Z,13.2
2023-05-11T09:29:19.000Z,11
2023-05-11T09:32:14.000Z,8.9
2023-05-11T09:35:46.000Z,9.6
2023-05-11T09:39:19.000Z,12
2023-05-11T09:43:04.000Z,9.3
2023-05-11T09:46:37.000Z,10.7
2023-05-11T09:50:10.000Z,10.4
2023-05-11T09:53:43.000Z,11.9
2023-05-11T09:57:16.000Z,10.7
2023-05-11T10:00:49.000Z,7.5
2023-05-11T10:04:21.000Z,9.3
2023-05-11T10:07:55.000Z,10.6
2023-05-11T10:10:46.000Z,8.5
2023-05-11T10:14:18.000Z,11.7
2023-05-11T10:17:51.000Z,10.9
2023-05-11T10:21:24.000Z,9.6
2023-05-11T10:24:56.000Z,10.1
2023-05-11T10:28:29.000Z,10.4
2023-05-11T10:32:02.000Z,14.5
2023-05-11T10:35:35.000Z,11.4
2023-05-11T10:39:07.000Z,10.9
2023-05-11T10:42:40.000Z,11.6
2023-05-11T10:46:12.000Z,10
2023-05-11T10:49:04.000Z,10.7
2023-05-11T10:52:36.000Z,9.7
2023-05-11T10:56:09.000Z,13.4
2023-05-11T10:59:42.000Z,13.4
2023-05-11T11:03:14.000Z,10.8
2023-05-11T11:06:47.000Z,12.1
2023-05-11T11:10:19.000Z,12.4
2023-05-11T11:13:52.000Z,9.7
2023-05-11T11:17:25.000Z,8.7
2023-05-11T11:20:58.000Z,9
2023-05-11T11:24:30.000Z,9.6
2023-05-11T11:27:21.000Z,8.6
2023-05-11T11:30:55.000Z,8.5
2023-05-11T11:34:28.000Z,6.7
2023-05-11T11:38:01.000Z,8.3
2023-05-11T11:41:33.000Z,7.3
2023-05-11T11:45:06.000Z,6.1
2023-05-11T11:48:39.000Z,6.3
2023-05-11T11:52:11.000Z,6
2023-05-11T11:55:44.000Z,5.3
2023-05-11T11:59:17.000Z,6.7
2023-05-11T12:02:49.000Z,9.1
2023-05-11T12:05:41.000Z,12.4
2023-05-11T12:09:13.000Z,7.2
2023-05-11T12:12:46.000Z,6.2
2023-05-11T12:16:19.000Z,6.5
2023-05-11T12:19:51.000Z,6.1
2023-05-11T12:23:24.000Z,6.7
2023-05-11T12:26:59.000Z,6
2023-05-11T12:30:32.000Z,6
2023-05-11T12:34:04.000Z,7.9
2023-05-11T12:37:37.000Z,6.8
2023-05-11T12:41:09.000Z,8.2
2023-05-11T12:44:01.000Z,7.1
2023-05-11T12:47:33.000Z,8.4
2023-05-11T12:51:06.000Z,7.8
2023-05-11T12:54:39.000Z,8.5
2023-05-11T12:58:11.000Z,7.7
2023-05-11T13:01:44.000Z,8
2023-05-11T13:05:17.000Z,7.9
2023-05-11T13:08:49.000Z,7
2023-05-11T13:12:22.000Z,7.6
2023-05-11T13:15:57.000Z,6.7
2023-05-11T13:19:30.000Z,7.2
2023-05-11T13:22:21.000Z,7.3
2023-05-11T13:25:54.000Z,5.1
2023-05-11T13:29:27.000Z,5.7
2023-05-11T13:33:00.000Z,6.6
2023-05-11T13:36:32.000Z,6.3
2023-05-11T13:40:05.000Z,5.6
2023-05-11T13:43:38.000Z,6.1
2023-05-11T13:47:10.000Z,8.5
2023-05-11T13:50:43.000Z,7.5
2023-05-11T13:54:16.000Z,8.5
2023-05-11T13:57:48.000Z,8.8
2023-05-11T14:00:39.000Z,7.8
2023-05-11T14:04:32.000Z,6.9
2023-05-11T14:08:04.000Z,7.6
2023-05-11T14:11:37.000Z,5.9
2023-05-11T14:15:10.000Z,7.6
2023-05-11T14:18:43.000Z,5.7
2023-05-11T14:22:16.000Z,4
2023-05-11T14:26:09.000Z,6.8
2023-05-11T14:29:42.000Z,7.9
2023-05-11T14:33:15.000Z,6.1
2023-05-11T14:36:47.000Z,5.6
2023-05-11T14:39:39.000Z,7.1
2023-05-11T14:43:11.000Z,3.3
2023-05-11T14:46:44.000Z,5.2
2023-05-11T14:50:17.000Z,5.7
2023-05-11T14:53:49.000Z,5
2023-05-11T14:57:22.000Z,6.2
2023-05-11T15:00:55.000Z,5.7
2023-05-11T15:04:28.000Z,6.5
2023-05-11T15:08:00.000Z,7.1
2023-05-11T15:13:57.000Z,3.7
2023-05-11T15:17:30.000Z,2.1
2023-05-11T15:20:15.000Z,3.3
2023-05-11T15:23:48.000Z,2.2
2023-05-11T15:27:20.000Z,2.8
2023-05-11T15:30:53.000Z,2.4
2023-05-11T15:34:26.000Z,3
2023-05-11T15:38:09.000Z,2
2023-05-11T15:41:42.000Z,2.6
2023-05-11T15:45:14.000Z,3.4
2023-05-11T15:48:47.000Z,2.4
2023-05-11T15:52:23.000Z,5
2023-05-11T15:55:56.000Z,2.9
2023-05-11T15:58:47.000Z,3.2
2023-05-11T16:02:20.000Z,4.1
2023-05-11T16:05:52.000Z,3.3
2023-05-11T16:09:25.000Z,3.9
2023-05-11T16:12:58.000Z,3.3
2023-05-11T16:16:30.000Z,3.2
2023-05-11T16:20:04.000Z,2.9
2023-05-11T16:23:36.000Z,4.6
2023-05-11T16:27:09.000Z,4.1
2023-05-11T16:30:42.000Z,4
2023-05-11T16:34:14.000Z,4.4
2023-05-11T16:37:05.000Z,4.1
2023-05-11T16:40:38.000Z,3.9
2023-05-11T16:44:10.000Z,3.8
2023-05-11T16:47:43.000Z,5.9
2023-05-11T16:51:16.000Z,5.2
2023-05-11T16:54:48.000Z,4.4
2023-05-11T16:58:24.000Z,6.2
2023-05-11T17:01:57.000Z,4.5
2023-05-11T17:05:30.000Z,5.6
2023-05-11T17:09:02.000Z,5
2023-05-11T17:12:35.000Z,4.1
2023-05-11T17:15:26.000Z,5.9
2023-05-11T17:18:59.000Z,7.3
2023-05-11T17:22:32.000Z,6.8
2023-05-11T17:26:04.000Z,7.7
2023-05-11T17:29:37.000Z,6
2023-05-11T17:33:10.000Z,5.4
2023-05-11T17:36:43.000Z,5
2023-05-11T17:40:16.000Z,4.1
2023-05-11T17:43:48.000Z,5.9
2023-05-11T17:47:21.000Z,5.9
2023-05-11T17:50:54.000Z,4.7
2023-05-11T17:53:45.000Z,5
2023-05-11T17:57:19.000Z,5
2023-05-11T18:00:51.000Z,5.1
2023-05-11T18:04:24.000Z,4.2
2023-05-11T18:07:57.000Z,4.4
2023-05-11T18:11:33.000Z,5.3
2023-05-11T18:15:05.000Z,7.1
2023-05-11T18:18:38.000Z,5.6
2023-05-11T18:22:10.000Z,8.4
2023-05-11T18:25:43.000Z,5.4
2023-05-11T18:29:16.000Z,3.9
2023-05-11T18:32:07.000Z,5.5
2023-05-11T18:35:39.000Z,6
2023-05-11T18:39:12.000Z,5.4
2023-05-11T18:42:45.000Z,6.6
2023-05-11T18:46:17.000Z,5.9
2023-05-11T18:49:50.000Z,6.3
2023-05-11T18:53:23.000Z,6.8
2023-05-11T18:56:55.000Z,5.2
2023-05-11T19:00:28.000Z,6.5
2023-05-11T19:04:01.000Z,4.5
2023-05-11T19:07:33.000Z,7
2023-05-11T19:10:25.000Z,6.5
2023-05-11T19:13:57.000Z,6.8
2023-05-11T19:17:30.000Z,7.5
2023-05-11T19:21:03.000Z,5.9
2023-05-11T19:24:36.000Z,5.9
2023-05-11T19:28:08.000Z,5.3
2023-05-11T19:31:41.000Z,6
2023-05-11T19:35:14.000Z,5.3
2023-05-11T19:38:46.000Z,6.1
2023-05-11T19:42:44.000Z,6.2
2023-05-11T19:46:16.000Z,6.2
2023-05-11T19:49:07.000Z,7.1
2023-05-11T19:52:40.000Z,6.5
2023-05-11T19:56:13.000Z,7.8
2023-05-11T19:59:46.000Z,8.1
2023-05-11T20:03:18.000Z,7.6
2023-05-11T20:06:54.000Z,6.3
2023-05-11T20:10:26.000Z,12.4
2023-05-11T20:13:59.000Z,9.2
2023-05-11T20:17:32.000Z,8.5
2023-05-11T20:21:05.000Z,9.8
2023-05-11T20:24:37.000Z,9.1
2023-05-11T20:27:29.000Z,12.3
2023-05-11T20:31:01.000Z,7
2023-05-11T20:34:34.000Z,8.8
2023-05-11T20:38:07.000Z,9
2023-05-11T20:41:39.000Z,10.9
2023-05-11T20:45:13.000Z,8.8
2023-05-11T20:48:46.000Z,6
2023-05-11T20:52:19.000Z,7.6
2023-05-11T20:55:52.000Z,6
2023-05-11T21:03:03.000Z,5.8
2023-05-11T21:05:54.000Z,7.9
2023-05-11T21:09:27.000Z,6.2
2023-05-11T21:13:00.000Z,7.5
2023-05-11T21:16:32.000Z,8.6
2023-05-11T21:20:05.000Z,6.9
2023-05-11T21:23:38.000Z,8.3
2023-05-11T21:27:10.000Z,7.6
2023-05-11T21:30:43.000Z,6
2023-05-11T21:34:16.000Z,8.4
2023-05-11T21:37:48.000Z,8.2
2023-05-11T21:41:21.000Z,10.9
2023-05-11T21:44:12.000Z,6
2023-05-11T21:47:45.000Z,11
2023-05-11T21:51:18.000Z,9.8
2023-05-11T21:54:50.000Z,10.8
2023-05-11T21:58:23.000Z,15.8
2023-05-11T22:01:55.000Z,14.7
2023-05-11T22:05:28.000Z,13
2023-05-11T22:09:01.000Z,12.5
2023-05-11T22:12:34.000Z,11.5
2023-05-11T22:16:06.000Z,8
2023-05-11T22:19:39.000Z,7.4
2023-05-11T22:22:30.000Z,10
2023-05-11T22:26:03.000Z,7.7
2023-05-11T22:29:35.000Z,7.1
2023-05-11T22:33:08.000Z,4.8
2023-05-11T22:36:40.000Z,7.3
2023-05-11T22:40:13.000Z,3.9
2023-05-11T22:43:46.000Z,4
2023-05-11T22:47:19.000Z,5.7
2023-05-11T22:50:51.000Z,6.2
2023-05-11T22:54:24.000Z,4.1
2023-05-11T22:57:57.000Z,4.9
2023-05-11T23:00:48.000Z,4.9
2023-05-11T23:04:21.000Z,5.9
2023-05-11T23:07:53.000Z,5.4
2023-05-11T23:11:26.000Z,5.6
2023-05-11T23:14:59.000Z,4.6
2023-05-11T23:18:32.000Z,3.7
2023-05-11T23:22:05.000Z,4
2023-05-11T23:25:37.000Z,4.6
2023-05-11T23:29:10.000Z,4.4
2023-05-11T23:32:43.000Z,5.2
2023-05-11T23:36:15.000Z,5.5
2023-05-11T23:39:07.000Z,3.7
2023-05-11T23:42:39.000Z,5
2023-05-11T23:46:13.000Z,4.3
2023-05-11T23:49:46.000Z,4.4
2023-05-11T23:53:19.000Z,5.2
2023-05-11T23:56:51.000Z,4.6
